Time;durP1;ratioP1;P1;durP2;ratioP2;P2;SDS_P1;SDS_P2;PMS_P1;PMS_P2;Temp;Humidity;BMP_temperature;BMP_pressure;BME280_temperature;BME280_humidity;BME280_pressure;Samples;Min_cycle;Max_cycle;Signal;HPM_P1;HPM_P2
2022/09/09 00:01:51;;;;;;;1999.90;999.90;;;;;;;16.01;100.00;93113.09;6271973;22;20165;-52
2022/09/09 00:04:34;;;;;;;1999.90;999.90;;;;;;;16.00;100.00;93095.06;6246448;23;20190;-53
2022/09/09 00:07:14;;;;;;;1999.90;999.90;;;;;;;15.96;100.00;93077.28;6245991;23;20157;-54
2022/09/09 00:10:18;;;;;;;1999.90;999.90;;;;;;;15.91;100.00;93067.75;6272180;22;20221;-54
2022/09/09 00:12:57;;;;;;;1999.90;999.90;;;;;;;15.91;100.00;93051.22;6200284;23;20690;-56
2022/09/09 00:15:27;;;;;;;1999.90;999.90;;;;;;;15.88;100.00;93035.69;6246278;23;20165;-54
2022/09/09 00:18:01;;;;;;;1999.90;999.90;;;;;;;15.86;100.00;93016.19;6246388;23;20169;-55
2022/09/09 00:20:52;;;;;;;1999.90;999.90;;;;;;;15.80;100.00;93007.16;6245949;23;20203;-56
2022/09/09 00:23:39;;;;;;;1999.90;999.90;;;;;;;15.78;100.00;92998.63;6271449;22;20232;-55
2022/09/09 00:26:23;;;;;;;1999.90;999.90;;;;;;;15.74;100.00;92970.59;6246356;23;20165;-55
2022/09/09 00:28:57;;;;;;;1999.90;999.90;;;;;;;15.72;100.00;92964.06;6271234;22;20196;-56
2022/09/09 00:31:29;;;;;;;1999.90;999.90;;;;;;;15.70;100.00;92961.81;6246252;23;20481;-54
2022/09/09 00:34:02;;;;;;;1999.90;999.90;;;;;;;15.73;100.00;92947.06;6246067;23;20157;-54
2022/09/09 00:36:30;;;;;;;1999.90;999.90;;;;;;;15.75;100.00;92950.09;6271612;22;20161;-52
2022/09/09 00:38:59;;;;;;;1999.90;999.90;;;;;;;15.75;100.00;92939.09;6245647;23;20196;-55
2022/09/09 00:41:45;;;;;;;1999.90;999.90;;;;;;;15.78;100.00;92938.06;6271365;22;20238;-52
2022/09/09 00:44:34;;;;;;;1999.90;999.90;;;;;;;15.80;100.00;92932.84;6271937;22;20194;-53
2022/09/09 00:47:18;;;;;;;1999.90;999.90;;;;;;;15.87;100.00;92934.34;6272149;22;20165;-50
2022/09/09 00:49:50;;;;;;;1999.90;999.90;;;;;;;15.87;100.00;92951.63;6271228;22;20592;-55
2022/09/09 00:52:26;;;;;;;1999.90;999.90;;;;;;;15.90;100.00;92947.88;6271316;22;20176;-52
2022/09/09 00:55:20;;;;;;;1999.90;999.90;;;;;;;15.94;100.00;92940.13;6271588;22;20520;-54
2022/09/09 00:57:51;;;;;;;1999.90;999.90;;;;;;;15.95;100.00;92941.63;6246080;23;20222;-53
2022/09/09 01:00:26;;;;;;;1999.90;999.90;;;;;;;15.98;100.00;92940.63;6245493;23;20652;-55
2022/09/09 01:03:30;;;;;;;1999.90;999.90;;;;;;;15.96;100.00;92942.38;6245638;23;20202;-54
2022/09/09 01:05:58;;;;;;;1999.90;999.90;;;;;;;15.86;100.00;92941.88;6271103;22;20161;-53
2022/09/09 01:08:33;;;;;;;1999.90;999.90;;;;;;;15.83;100.00;92940.09;6270979;22;20176;-55
2022/09/09 01:10:59;;;;;;;1999.90;999.90;;;;;;;15.77;100.00;92933.81;6272081;22;20165;-53
2022/09/09 01:13:30;;;;;;;1999.90;999.90;;;;;;;15.73;100.00;92930.56;6245752;22;20173;-52
2022/09/09 01:15:59;;;;;;;1999.90;999.90;;;;;;;15.64;100.00;92919.78;6246146;22;20172;-52
2022/09/09 01:18:29;;;;;;;1999.90;999.90;;;;;;;15.65;100.00;92901.25;6270734;22;20188;-54
2022/09/09 01:21:06;;;;;;;1999.90;999.90;;;;;;;15.62;100.00;92892.00;6245571;23;20161;-55
2022/09/09 01:24:08;;;;;;;1999.90;999.90;;;;;;;15.64;100.00;92877.75;6245457;23;20165;-53
2022/09/09 01:26:41;;;;;;;1999.90;999.90;;;;;;;15.61;100.00;92863.00;6169700;23;20156;-55
2022/09/09 01:29:09;;;;;;;1999.90;999.90;;;;;;;15.60;100.00;92850.50;6245539;23;20161;-55
2022/09/09 01:31:43;;;;;;;1999.90;999.90;;;;;;;15.59;100.00;92848.25;6245872;23;20252;-52
2022/09/09 01:34:13;;;;;;;1999.90;999.90;;;;;;;15.54;100.00;92835.97;6245960;23;20172;-49
2022/09/09 01:36:46;;;;;;;1999.90;999.90;;;;;;;15.56;100.00;92822.44;6245782;23;20161;-53
2022/09/09 01:39:12;;;;;;;1999.90;999.90;;;;;;;15.57;100.00;92807.47;6271093;22;20189;-55
2022/09/09 01:41:38;;;;;;;1999.90;999.90;;;;;;;15.55;100.00;92779.69;6245933;23;20165;-54
2022/09/09 01:44:05;;;;;;;1999.90;999.90;;;;;;;15.51;100.00;92773.69;6245991;22;20168;-54
2022/09/09 01:46:31;;;;;;;1999.90;999.90;;;;;;;15.53;100.00;92773.19;6245373;23;20656;-53
2022/09/09 01:48:58;;;;;;;1999.90;999.90;;;;;;;15.56;100.00;92767.44;6270954;22;20172;-55
2022/09/09 01:51:23;;;;;;;1999.90;999.90;;;;;;;15.60;100.00;92767.97;6245143;22;20178;-51
2022/09/09 01:53:49;;;;;;;1999.90;999.90;;;;;;;15.64;100.00;92784.97;6220248;22;20169;-55
2022/09/09 01:56:52;;;;;;;1999.90;999.90;;;;;;;15.66;100.00;92781.72;6245148;23;20176;-56
2022/09/09 01:59:28;;;;;;;1999.90;999.90;;;;;;;15.58;100.00;92786.94;6270400;22;20212;-51
2022/09/09 02:02:05;;;;;;;1999.90;999.90;;;;;;;15.57;100.00;92779.94;6270883;22;20169;-54
2022/09/09 02:04:43;;;;;;;1999.90;999.90;;;;;;;15.55;100.00;92776.22;6270857;22;20164;-53
2022/09/09 02:07:35;;;;;;;1999.90;999.90;;;;;;;15.52;100.00;92782.69;6245706;23;20157;-52
2022/09/09 02:10:20;;;;;;;1999.90;999.90;;;;;;;15.45;100.00;92796.94;6214186;22;20176;-51
2022/09/09 02:12:52;;;;;;;1999.90;999.90;;;;;;;15.45;100.00;92786.66;6270794;22;20165;-54
2022/09/09 02:15:35;;;;;;;1999.90;999.90;;;;;;;15.42;100.00;92790.44;6245532;23;20172;-52
2022/09/09 02:18:07;;;;;;;1999.90;999.90;;;;;;;15.41;100.00;92777.91;6245466;23;20189;-52
2022/09/09 02:20:34;;;;;;;1999.90;999.90;;;;;;;15.39;100.00;92774.16;6270671;22;20196;-51
2022/09/09 02:23:01;;;;;;;1999.90;999.90;;;;;;;15.43;100.00;92764.44;6245609;23;20177;-53
2022/09/09 02:25:29;;;;;;;1999.90;999.90;;;;;;;15.45;100.00;92748.16;6244660;23;20599;-54
2022/09/09 02:27:55;;;;;;;1999.90;999.90;;;;;;;15.45;100.00;92756.41;6245646;22;20170;-54
2022/09/09 02:30:21;;;;;;;1999.90;999.90;;;;;;;15.42;100.00;92759.41;6245384;22;20165;-53
2022/09/09 02:32:51;;;;;;;1999.90;999.90;;;;;;;15.36;100.00;92767.66;6245463;22;20168;-51
2022/09/09 02:35:21;;;;;;;1999.90;999.90;;;;;;;15.33;100.00;92763.13;6244486;23;20231;-54
2022/09/09 02:37:47;;;;;;;1999.90;999.90;;;;;;;15.30;100.00;92761.38;6244786;22;20191;-55
2022/09/09 02:40:15;;;;;;;1999.90;999.90;;;;;;;15.23;100.00;92755.63;6245329;23;20162;-52
2022/09/09 02:42:43;;;;;;;1999.90;999.90;;;;;;;15.21;100.00;92753.38;6270459;22;20165;-55
2022/09/09 02:45:10;;;;;;;1999.90;999.90;;;;;;;15.16;100.00;92740.34;6270573;22;20256;-55
2022/09/09 02:47:43;;;;;;;1999.90;999.90;;;;;;;15.22;100.00;92735.59;6245441;22;20478;-56
2022/09/09 02:50:13;;;;;;;1999.90;999.90;;;;;;;15.25;100.00;92731.88;6245688;23;20212;-56
2022/09/09 02:52:41;;;;;;;1999.90;999.90;;;;;;;15.27;100.00;92734.84;6270217;22;20240;-54
2022/09/09 02:55:16;;;;;;;1999.90;999.90;;;;;;;15.29;100.00;92740.63;6270682;22;20243;-58
2022/09/09 02:57:46;;;;;;;1999.90;999.90;;;;;;;15.30;100.00;92744.88;6245216;23;20240;-56
2022/09/09 03:00:12;;;;;;;1999.90;999.90;;;;;;;15.29;100.00;92748.13;6270302;22;20161;-54
2022/09/09 03:02:38;;;;;;;1999.90;999.90;;;;;;;15.30;100.00;92752.38;6270627;22;20168;-55
2022/09/09 03:05:04;;;;;;;1999.90;999.90;;;;;;;15.30;100.00;92744.13;6245024;23;20161;-53
2022/09/09 03:07:30;;;;;;;1999.90;999.90;;;;;;;15.31;100.00;92738.13;6244535;22;20593;-56
2022/09/09 03:09:55;;;;;;;1999.90;999.90;;;;;;;15.36;100.00;92745.66;6269887;22;20189;-54
2022/09/09 03:12:21;;;;;;;1999.90;999.90;;;;;;;15.34;100.00;92739.88;6270149;22;20158;-53
2022/09/09 03:14:46;;;;;;;1999.90;999.90;;;;;;;15.38;100.00;92745.94;6270053;22;20165;-52
2022/09/09 03:17:12;;;;;;;1999.90;999.90;;;;;;;15.40;100.00;92751.66;6269999;22;20161;-53
2022/09/09 03:19:37;;;;;;;1999.90;999.90;;;;;;;15.39;100.00;92752.94;6244409;23;20208;-55
2022/09/09 03:22:04;;;;;;;1999.90;999.90;;;;;;;15.35;100.00;92746.91;6270369;22;20161;-53
2022/09/09 03:24:29;;;;;;;1999.90;999.90;;;;;;;15.37;100.00;92747.16;6272248;22;20165;-52
2022/09/09 03:26:55;;;;;;;1999.90;999.90;;;;;;;15.37;100.00;92741.66;6246645;23;20164;-57
2022/09/09 03:29:21;;;;;;;1999.90;999.90;;;;;;;15.34;100.00;92745.38;6271306;22;20196;-55
2022/09/09 03:31:46;;;;;;;1999.90;999.90;;;;;;;15.34;100.00;92750.88;6271315;22;20240;-55
2022/09/09 03:34:13;;;;;;;1999.90;999.90;;;;;;;15.32;100.00;92745.13;6271860;22;20165;-55
2022/09/09 03:36:40;;;;;;;1999.90;999.90;;;;;;;15.25;100.00;92742.88;6246749;22;20173;-55
2022/09/09 03:39:06;;;;;;;1999.90;999.90;;;;;;;15.25;100.00;92775.88;6246046;22;20193;-53
2022/09/09 03:41:31;;;;;;;1999.90;999.90;;;;;;;15.22;100.00;92773.34;6271320;22;20162;-55
2022/09/09 03:43:57;;;;;;;1999.90;999.90;;;;;;;15.18;100.00;92765.34;6272133;22;20161;-55
2022/09/09 03:46:24;;;;;;;1999.90;999.90;;;;;;;15.17;100.00;92768.59;6271726;22;20228;-55
2022/09/09 03:48:50;;;;;;;1999.90;999.90;;;;;;;15.16;100.00;92756.84;6245844;22;20592;-51
2022/09/09 03:51:16;;;;;;;1999.90;999.90;;;;;;;15.15;100.00;92755.34;6247368;22;20247;-55
2022/09/09 03:53:42;;;;;;;1999.90;999.90;;;;;;;15.13;100.00;92757.84;6245638;22;20187;-54
2022/09/09 03:56:09;;;;;;;1999.90;999.90;;;;;;;15.13;100.00;92752.34;6245777;23;20169;-57
2022/09/09 03:58:35;;;;;;;1999.90;999.90;;;;;;;15.17;100.00;92752.09;6246400;22;20196;-52
2022/09/09 04:01:04;;;;;;;1999.90;999.90;;;;;;;15.20;100.00;92740.09;6245925;23;20161;-56
2022/09/09 04:03:30;;;;;;;1999.90;999.90;;;;;;;15.20;100.00;92740.09;6271664;22;20157;-56
2022/09/09 04:05:58;;;;;;;1999.90;999.90;;;;;;;15.25;100.00;92736.59;6245663;23;20161;-55
2022/09/09 04:08:25;;;;;;;1999.90;999.90;;;;;;;15.28;100.00;92735.63;6271229;22;20256;-55
2022/09/09 04:10:51;;;;;;;1999.90;999.90;;;;;;;15.30;100.00;92739.38;6271088;22;20181;-56
2022/09/09 04:13:17;;;;;;;1999.90;999.90;;;;;;;15.32;100.00;92736.88;6271800;22;20866;-55
2022/09/09 04:15:44;;;;;;;1999.90;999.90;;;;;;;15.37;100.00;92732.69;6245806;22;20168;-55
2022/09/09 04:18:11;;;;;;;1999.90;999.90;;;;;;;15.37;100.00;92733.41;6246193;22;20189;-53
2022/09/09 04:20:37;;;;;;;1999.90;999.90;;;;;;;15.41;100.00;92733.19;6271411;22;20172;-54
2022/09/09 04:23:03;;;;;;;1999.90;999.90;;;;;;;15.41;100.00;92741.44;6246265;22;20175;-53
2022/09/09 04:25:28;;;;;;;1999.90;999.90;;;;;;;15.37;100.00;92744.41;6246048;23;20167;-57
2022/09/09 04:27:55;;;;;;;1999.90;999.90;;;;;;;15.34;100.00;92744.63;6245583;23;20307;-56
2022/09/09 04:30:21;;;;;;;1999.90;999.90;;;;;;;15.30;100.00;92741.38;6245709;23;20164;-57
2022/09/09 04:32:47;;;;;;;1999.90;999.90;;;;;;;15.29;100.00;92735.13;6245623;23;20161;-52
2022/09/09 04:35:12;;;;;;;1999.90;999.90;;;;;;;15.24;100.00;92741.38;6271166;22;20161;-55
2022/09/09 04:37:37;;;;;;;1999.90;999.90;;;;;;;15.19;100.00;92744.84;6271878;22;20474;-57
2022/09/09 04:40:03;;;;;;;1999.90;999.90;;;;;;;15.15;100.00;92741.59;6270791;22;20184;-56
2022/09/09 04:42:28;;;;;;;1999.90;999.90;;;;;;;15.10;100.00;92736.09;6271070;22;20153;-56
2022/09/09 04:44:54;;;;;;;1999.90;999.90;;;;;;;15.12;100.00;92739.84;6271280;22;20169;-56
2022/09/09 04:47:19;;;;;;;1999.90;999.90;;;;;;;15.10;100.00;92731.34;6270815;22;20168;-56
2022/09/09 04:49:45;;;;;;;1999.90;999.90;;;;;;;15.11;100.00;92723.84;6271095;22;20244;-56
2022/09/09 04:52:10;;;;;;;1999.90;999.90;;;;;;;15.09;100.00;92727.09;6245624;22;20211;-57
2022/09/09 04:54:36;;;;;;;1999.90;999.90;;;;;;;15.00;100.00;92721.81;6271239;22;20196;-56
2022/09/09 04:57:01;;;;;;;1999.90;999.90;;;;;;;14.96;100.00;92721.31;6271220;22;20157;-57
2022/09/09 04:59:27;;;;;;;1999.90;999.90;;;;;;;14.97;100.00;92719.31;6270987;22;20243;-53
2022/09/09 05:01:54;;;;;;;1999.90;999.90;;;;;;;14.96;100.00;92715.81;6245483;23;20252;-54
2022/09/09 05:04:21;;;;;;;1999.90;999.90;;;;;;;15.00;100.00;92713.56;6271024;22;20161;-56
2022/09/09 05:06:46;;;;;;;1999.90;999.90;;;;;;;15.04;100.00;92718.84;6271267;22;20200;-56
2022/09/09 05:09:11;;;;;;;1999.90;999.90;;;;;;;14.98;100.00;92724.34;6271898;22;20482;-56
2022/09/09 05:11:37;;;;;;;1999.90;999.90;;;;;;;15.02;100.00;92727.59;6270955;22;20207;-56
2022/09/09 05:14:03;;;;;;;1999.90;999.90;;;;;;;15.01;100.00;92728.81;6271724;22;20173;-55
2022/09/09 05:16:28;;;;;;;1999.90;999.90;;;;;;;15.03;100.00;92720.84;6270987;22;20161;-52
2022/09/09 05:18:54;;;;;;;1999.90;999.90;;;;;;;15.05;100.00;92732.06;6246612;23;20235;-53
2022/09/09 05:21:21;;;;;;;1999.90;999.90;;;;;;;15.15;100.00;92725.09;6271146;22;20239;-55
2022/09/09 05:23:47;;;;;;;1999.90;999.90;;;;;;;15.23;100.00;92728.13;6245654;23;20173;-54
2022/09/09 05:26:19;;;;;;;1999.90;999.90;;;;;;;15.19;100.00;92735.88;6245643;22;20169;-57
2022/09/09 05:28:46;;;;;;;1999.90;999.90;;;;;;;15.18;100.00;92737.09;6246080;23;20591;-54
2022/09/09 05:31:13;;;;;;;1999.90;999.90;;;;;;;15.21;100.00;92742.38;6245358;23;20168;-52
2022/09/09 05:33:40;;;;;;;1999.90;999.90;;;;;;;15.24;100.00;92749.63;6245456;22;20191;-56
2022/09/09 05:36:13;;;;;;;1999.90;999.90;;;;;;;15.25;100.00;92745.63;6245449;23;20181;-54
2022/09/09 05:38:40;;;;;;;1999.90;999.90;;;;;;;15.30;100.00;92755.88;6245199;23;20181;-56
2022/09/09 05:41:06;;;;;;;1999.90;999.90;;;;;;;15.33;100.00;92749.38;6245930;22;20173;-56
2022/09/09 05:43:32;;;;;;;1999.90;999.90;;;;;;;15.35;100.00;92760.66;6245472;22;20161;-55
2022/09/09 05:46:07;;;;;;;1999.90;999.90;;;;;;;15.41;100.00;92772.41;6245352;23;20494;-55
2022/09/09 05:48:46;;;;;;;1999.90;999.90;;;;;;;15.45;100.00;92777.69;6271868;22;20190;-54
2022/09/09 05:51:15;;;;;;;1999.90;999.90;;;;;;;15.47;100.00;92775.94;6245489;23;20244;-54
2022/09/09 05:53:41;;;;;;;1999.90;999.90;;;;;;;15.50;100.00;92785.94;6245809;22;20181;-55
2022/09/09 05:56:10;;;;;;;1999.90;999.90;;;;;;;15.58;100.00;92786.19;6245202;23;20189;-53
2022/09/09 05:58:36;;;;;;;1999.90;999.90;;;;;;;15.61;100.00;92788.72;6245148;23;20181;-52
2022/09/09 06:01:07;;;;;;;1999.90;999.90;;;;;;;15.73;100.00;92798.47;6270713;22;20165;-55
2022/09/09 06:03:34;;;;;;;1999.90;999.90;;;;;;;15.85;100.00;92802.72;6270862;22;20232;-56
2022/09/09 06:06:01;;;;;;;1999.90;999.90;;;;;;;15.97;100.00;92823.53;6245127;22;20239;-55
2022/09/09 06:08:27;;;;;;;1999.90;999.90;;;;;;;16.09;100.00;92824.25;6244948;23;20176;-55
2022/09/09 06:10:52;;;;;;;1999.90;999.90;;;;;;;16.07;100.00;92844.03;6245194;23;20169;-54
2022/09/09 06:13:18;;;;;;;1999.90;999.90;;;;;;;16.08;100.00;92851.06;6270403;22;20165;-57
2022/09/09 06:15:51;;;;;;;1999.90;999.90;;;;;;;16.12;100.00;92861.81;6244947;22;20165;-56
2022/09/09 06:18:18;;;;;;;1999.90;999.90;;;;;;;16.15;100.00;92877.34;6245679;23;20595;-55
2022/09/09 06:21:04;;;;;;;1999.90;999.90;;;;;;;16.15;100.00;92880.09;6245885;23;20165;-57
2022/09/09 06:23:30;;;;;;;1999.90;999.90;;;;;;;16.20;100.00;92880.09;6245419;23;20578;-57
2022/09/09 06:26:05;;;;;;;1999.90;999.90;;;;;;;16.19;100.00;92888.84;6245545;23;20562;-57
2022/09/09 06:28:31;;;;;;;1999.90;999.90;;;;;;;16.19;100.00;92903.38;6245957;23;20194;-55
2022/09/09 06:30:58;;;;;;;1999.90;999.90;;;;;;;16.22;100.00;92913.38;6244946;23;20252;-55
2022/09/09 06:33:24;;;;;;;1999.90;999.90;;;;;;;16.20;100.00;92924.16;6245447;23;20472;-57
2022/09/09 06:35:53;;;;;;;1999.90;999.90;;;;;;;16.26;100.00;92922.16;6270671;22;20157;-57
2022/09/09 06:38:19;;;;;;;1999.90;999.90;;;;;;;16.30;100.00;92924.66;6244427;22;20185;-56
2022/09/09 06:40:54;;;;;;;1999.90;999.90;;;;;;;16.36;100.00;92925.44;6271045;22;20223;-54
2022/09/09 06:43:20;;;;;;;1999.90;999.90;;;;;;;16.33;100.00;92938.16;6244476;22;20468;-56
2022/09/09 06:45:56;;;;;;;1999.90;999.90;;;;;;;16.32;100.00;92944.94;6244758;23;20165;-56
2022/09/09 06:48:22;;;;;;;1999.90;999.90;;;;;;;16.42;100.00;92944.75;6244654;23;20173;-57
2022/09/09 06:50:49;;;;;;;1999.90;999.90;;;;;;;16.51;100.00;92953.50;6270014;22;20325;-57
2022/09/09 06:53:21;;;;;;;1999.90;999.90;;;;;;;16.57;100.00;92959.03;6270087;22;20169;-56
2022/09/09 06:55:46;;;;;;;1999.90;999.90;;;;;;;16.72;100.00;92956.75;6244523;23;20506;-57
2022/09/09 06:58:12;;;;;;;1999.90;999.90;;;;;;;16.82;100.00;92960.78;6271506;22;20208;-58
2022/09/09 07:00:38;;;;;;;1999.90;999.90;;;;;;;16.87;100.00;92974.56;6246492;23;20149;-57
2022/09/09 07:03:04;;;;;;;1999.90;999.90;;;;;;;16.97;100.00;92975.03;6272002;22;20193;-56
2022/09/09 07:05:29;;;;;;;1999.90;999.90;;;;;;;17.01;100.00;92981.06;6271763;22;20215;-56
2022/09/09 07:07:54;;;;;;;1999.90;999.90;;;;;;;17.07;100.00;92981.78;6271767;22;20196;-56
2022/09/09 07:10:20;;;;;;;1999.90;999.90;;;;;;;17.19;100.00;92977.78;6272231;22;20161;-55
2022/09/09 07:12:51;;;;;;;1999.90;999.90;;;;;;;17.27;100.00;92979.53;6271695;22;20173;-55
2022/09/09 07:15:18;;;;;;;1999.90;999.90;;;;;;;17.34;100.00;92992.03;6246245;23;20184;-54
2022/09/09 07:17:44;;;;;;;1999.90;999.90;;;;;;;17.34;100.00;93000.31;6271481;22;20168;-55
2022/09/09 07:20:09;;;;;;;1999.90;999.90;;;;;;;17.42;100.00;92995.81;6246004;23;20189;-55
2022/09/09 07:22:34;;;;;;;1999.90;999.90;;;;;;;17.40;100.00;93010.09;6271627;22;20598;-52
2022/09/09 07:25:00;;;;;;;1999.90;999.90;;;;;;;17.40;100.00;93026.63;6271491;22;20165;-54
2022/09/09 07:27:25;;;;;;;1999.90;999.90;;;;;;;17.38;100.00;93036.69;6271516;22;20165;-54
2022/09/09 07:29:50;;;;;;;1999.90;999.90;;;;;;;17.31;100.00;93062.03;6271590;22;20228;-53
2022/09/09 07:32:17;;;;;;;1999.90;999.90;;;;;;;17.24;100.00;93051.50;6271496;22;20215;-54
2022/09/09 07:34:42;;;;;;;1999.90;999.90;;;;;;;17.25;100.00;93036.44;6271450;22;20165;-57
2022/09/09 07:37:11;;;;;;;1999.90;999.90;;;;;;;17.28;100.00;93035.44;6271557;22;20167;-55
2022/09/09 07:39:37;;;;;;;1999.90;999.90;;;;;;;17.35;100.00;93046.72;6271573;22;20320;-56
2022/09/09 07:42:04;;;;;;;1999.90;999.90;;;;;;;17.35;100.00;93057.00;6245713;23;20201;-55
2022/09/09 07:44:29;;;;;;;1999.90;999.90;;;;;;;17.46;100.00;93062.53;6272134;22;20184;-57
2022/09/09 07:46:55;;;;;;;1999.90;999.90;;;;;;;17.55;100.00;93070.56;6270914;22;20173;-56
2022/09/09 07:49:21;;;;;;;1999.90;999.90;;;;;;;17.65;100.00;93077.28;6245601;22;20166;-55
2022/09/09 07:51:47;;;;;;;1999.90;999.90;;;;;;;17.79;100.00;93090.06;6271394;22;20181;-54
2022/09/09 07:54:15;;;;;;;1999.90;999.90;;;;;;;17.90;100.00;93101.09;6246575;22;20181;-56
2022/09/09 07:56:42;;;;;;;1999.90;999.90;;;;;;;18.04;100.00;93120.16;6246424;22;20188;-56
2022/09/09 07:59:10;;;;;;;1999.90;999.90;;;;;;;18.08;100.00;93142.00;6271868;22;20181;-55
2022/09/09 08:01:45;;;;;;;1999.90;999.90;;;;;;;18.19;100.00;93155.78;6245715;22;20165;-56
2022/09/09 08:04:16;;;;;;;1999.90;999.90;;;;;;;18.23;100.00;93175.59;6246335;23;20188;-53
2022/09/09 08:06:44;;;;;;;1999.90;999.90;;;;;;;18.26;100.00;93182.88;6246224;23;20189;-53
2022/09/09 08:09:10;;;;;;;1999.90;999.90;;;;;;;18.36;100.00;93179.34;6245689;22;20304;-54
2022/09/09 08:11:37;;;;;;;1999.90;999.90;;;;;;;18.49;100.00;93200.94;6271424;22;20256;-54
2022/09/09 08:14:03;;;;;;;1999.90;999.90;;;;;;;18.54;100.00;93219.53;6245768;22;20158;-54
2022/09/09 08:16:31;;;;;;;1999.90;999.90;;;;;;;18.49;100.00;93240.41;6245809;23;20165;-55
2022/09/09 08:18:57;;;;;;;1999.90;999.90;;;;;;;18.60;100.00;93250.66;6245558;22;20254;-52
2022/09/09 08:21:26;;;;;;;1999.90;999.90;;;;;;;18.60;100.00;93278.31;6246306;22;20165;-52
2022/09/09 08:23:53;;;;;;;1999.90;999.90;;;;;;;18.78;100.00;93286.84;6245723;23;20164;-52
2022/09/09 08:26:22;;;;;;;1999.90;999.90;;;;;;;18.83;100.00;93297.13;6245771;22;20169;-55
2022/09/09 08:28:49;;;;;;;1999.90;999.90;;;;;;;19.03;100.00;93298.81;6246235;22;20270;-51
2022/09/09 08:31:21;;;;;;;1999.90;999.90;;;;;;;19.13;100.00;93322.19;6246071;23;20165;-56
2022/09/09 08:33:47;;;;;;;1999.90;999.90;;;;;;;19.27;100.00;93357.16;6270949;22;20178;-54
2022/09/09 08:36:17;;;;;;;1999.90;999.90;;;;;;;19.38;100.00;93379.25;6245748;22;20165;-52
2022/09/09 08:38:46;;;;;;;1999.90;999.90;;;;;;;19.24;100.00;93405.19;6271731;22;20237;-58
2022/09/09 08:41:30;;;;;;;1999.90;999.90;;;;;;;19.33;100.00;93416.00;6271146;22;20169;-56
2022/09/09 08:44:35;;;;;;;1999.90;999.90;;;;;;;19.41;100.00;93431.59;6271943;22;20208;-55
2022/09/09 08:47:26;;;;;;;1999.90;999.90;;;;;;;19.28;100.00;93436.16;6203952;23;20223;-56
2022/09/09 08:50:00;;;;;;;1999.90;999.90;;;;;;;19.22;100.00;93452.00;6271411;22;20280;-56
2022/09/09 08:52:30;;;;;;;1999.90;999.90;;;;;;;19.12;100.00;93436.91;6271941;22;20220;-56
2022/09/09 08:55:03;;;;;;;1999.90;999.90;;;;;;;19.05;100.00;93418.06;6270805;22;20251;-54
2022/09/09 08:57:31;;;;;;;1999.90;999.90;;;;;;;19.07;100.00;93388.63;6246054;23;20169;-54
2022/09/09 08:59:58;;;;;;;1999.90;999.90;;;;;;;19.07;100.00;93382.31;6245320;22;20188;-52
2022/09/09 09:02:46;;;;;;;1999.90;999.90;;;;;;;19.01;100.00;93378.81;6271590;22;20185;-50
2022/09/09 09:05:37;;;;;;;1999.90;999.90;;;;;;;18.82;100.00;93350.19;6270799;22;20256;-53
2022/09/09 09:08:28;;;;;;;1999.90;999.90;;;;;;;18.78;100.00;93284.06;6245451;23;20158;-50
2022/09/09 09:10:56;;;;;;;1999.90;999.90;;;;;;;18.76;100.00;93228.50;6271039;22;20173;-58
2022/09/09 09:13:40;;;;;;;1999.90;999.90;;;;;;;18.83;100.00;93185.75;6245370;23;20219;-58
2022/09/09 09:16:50;;;;;;;1999.90;999.90;;;;;;;18.92;100.00;93182.66;6245573;23;20172;-55
2022/09/09 09:19:17;;;;;;;1999.90;999.90;;;;;;;19.08;100.00;93201.19;6270629;22;20181;-57
2022/09/09 09:21:55;;;;;;;1999.90;999.90;;;;;;;19.22;100.00;93227.78;6245115;22;20173;-57
2022/09/09 09:24:32;;;;;;;1999.90;999.90;;;;;;;19.35;100.00;93250.16;6271364;22;20169;-56
2022/09/09 09:27:00;;;;;;;1999.90;999.90;;;;;;;19.59;100.00;93280.72;6271679;22;20173;-57
2022/09/09 09:29:26;;;;;;;1999.90;999.90;;;;;;;19.82;100.00;93290.41;6245422;23;20169;-57
2022/09/09 09:31:55;;;;;;;1999.90;999.90;;;;;;;19.93;100.00;93318.03;6245385;22;20165;-56
2022/09/09 09:34:20;;;;;;;1999.90;999.90;;;;;;;19.96;100.00;93332.88;6271374;22;20165;-56
2022/09/09 09:36:56;;;;;;;1999.90;999.90;;;;;;;19.79;100.00;93343.31;6270800;22;20189;-57
2022/09/09 09:39:23;;;;;;;1999.90;999.90;;;;;;;19.68;100.00;93332.28;6245348;22;20201;-56
2022/09/09 09:41:48;;;;;;;1999.90;999.90;;;;;;;19.65;100.00;93314.69;6271643;22;20472;-56
2022/09/09 09:44:31;;;;;;;1999.90;999.90;;;;;;;19.64;100.00;93299.34;6245431;23;20219;-57
2022/09/09 09:47:29;;;;;;;1999.90;999.90;;;;;;;19.56;100.00;93289.31;6246012;23;20168;-56
2022/09/09 09:49:59;;;;;;;1999.90;999.90;;;;;;;19.56;100.00;93300.38;6204530;22;20215;-56
2022/09/09 09:52:30;;;;;;;1999.90;999.90;;;;;;;19.37;100.00;93333.44;6245197;23;20176;-57
2022/09/09 09:54:59;;;;;;;1999.90;999.90;;;;;;;19.34;100.00;93345.56;6245393;22;20165;-56
2022/09/09 09:57:29;;;;;;;1999.90;999.90;;;;;;;19.37;100.00;93358.34;6245480;23;20161;-56
2022/09/09 10:00:13;;;;;;;1999.90;999.90;;;;;;;19.37;100.00;93364.66;6245567;23;20219;-56
2022/09/09 10:02:42;;;;;;;1999.90;999.90;;;;;;;19.49;100.00;93366.09;6270751;22;20175;-55
2022/09/09 10:05:17;;;;;;;1999.90;999.90;;;;;;;19.52;100.00;93383.72;6271213;22;20219;-57
2022/09/09 10:07:45;;;;;;;1999.90;999.90;;;;;;;19.59;100.00;93421.97;6270515;22;20165;-58
2022/09/09 10:10:17;;;;;;;1999.90;999.90;;;;;;;19.72;100.00;93424.94;6245158;23;20161;-57
2022/09/09 10:13:04;;;;;;;1999.90;999.90;;;;;;;19.89;100.00;93450.56;6245338;23;20178;-57
2022/09/09 10:15:50;;;;;;;1999.90;999.90;;;;;;;19.98;100.00;93486.28;6245787;23;20153;-54
2022/09/09 10:18:37;;;;;;;1999.90;999.90;;;;;;;19.73;100.00;93523.41;6270338;22;20169;-56
2022/09/09 10:21:20;;;;;;;1999.90;999.90;;;;;;;19.65;100.00;93518.88;6271261;22;20168;-55
2022/09/09 10:23:48;;;;;;;1999.90;999.90;;;;;;;19.36;100.00;93536.81;6271210;22;20157;-59
2022/09/09 10:26:39;;;;;;;1999.90;999.90;;;;;;;19.25;100.00;93526.50;6270950;22;20165;-59
2022/09/09 10:29:43;;;;;;;1999.90;999.90;;;;;;;19.25;100.00;93509.13;6244890;23;20165;-58
2022/09/09 10:32:27;;;;;;;1999.90;999.90;;;;;;;19.33;100.00;93496.28;6245539;23;20194;-59
2022/09/09 10:35:27;;;;;;;1999.90;999.90;;;;;;;19.36;100.00;93490.50;6272337;22;20247;-59
2022/09/09 10:38:01;;;;;;;1999.90;999.90;;;;;;;19.51;100.00;93484.69;6232129;22;20165;-59
2022/09/09 10:40:45;;;;;;;1999.90;999.90;;;;;;;19.58;100.00;93464.78;6272276;22;20180;-60
2022/09/09 10:43:32;;;;;;;1999.90;999.90;;;;;;;19.66;100.00;93476.84;6272309;22;20230;-59
2022/09/09 10:46:35;;;;;;;1999.90;999.90;;;;;;;19.66;100.00;93515.63;6246674;23;20177;-58
2022/09/09 10:49:15;;;;;;;1999.90;999.90;;;;;;;19.73;100.00;93537.25;6272237;22;20169;-59
2022/09/09 10:51:58;;;;;;;1999.90;999.90;;;;;;;19.90;100.00;93553.84;6271661;22;20245;-59
2022/09/09 10:54:24;;;;;;;1999.90;999.90;;;;;;;19.71;100.00;93567.50;6272108;22;20176;-59
2022/09/09 10:56:58;;;;;;;1999.90;999.90;;;;;;;19.61;100.00;93510.09;6272253;22;20169;-59
2022/09/09 10:59:33;;;;;;;1999.90;999.90;;;;;;;19.63;100.00;93466.75;6245938;23;20216;-60
2022/09/09 11:02:10;;;;;;;1999.90;999.90;;;;;;;19.82;100.00;93480.81;6272111;22;20252;-59
2022/09/09 11:04:41;;;;;;;1999.90;999.90;;;;;;;19.81;100.00;93463.44;6245882;23;20160;-60
2022/09/09 11:07:13;;;;;;;1999.90;999.90;;;;;;;19.97;100.00;93456.31;6246219;23;20176;-59